sensor_id;sensor_type;location;lat;lon;timestamp;P1;durP1;ratioP1;P2;durP2;ratioP2
16099;SDS011;8154;50.830;12.082;2022-11-24T00:01:54;2.08;;;1.75;;
16099;SDS011;8154;50.830;12.082;2022-11-24T00:04:38;2.22;;;1.90;;
16099;SDS011;8154;50.830;12.082;2022-11-24T00:07:21;2.00;;;1.90;;
16099;SDS011;8154;50.830;12.082;2022-11-24T00:10:06;2.08;;;1.90;;
16099;SDS011;8154;50.830;12.082;2022-11-24T00:12:50;2.22;;;1.92;;
16099;SDS011;8154;50.830;12.082;2022-11-24T00:15:34;2.20;;;2.00;;
16099;SDS011;8154;50.830;12.082;2022-11-24T00:18:18;2.20;;;2.00;;
16099;SDS011;8154;50.830;12.082;2022-11-24T00:21:02;2.00;;;1.90;;
16099;SDS011;8154;50.830;12.082;2022-11-24T00:23:47;3.15;;;2.13;;
16099;SDS011;8154;50.830;12.082;2022-11-24T00:26:32;3.42;;;1.88;;
16099;SDS011;8154;50.830;12.082;2022-11-24T00:29:19;2.92;;;1.80;;
16099;SDS011;8154;50.830;12.082;2022-11-24T00:32:04;2.13;;;1.83;;
16099;SDS011;8154;50.830;12.082;2022-11-24T00:34:49;1.90;;;1.80;;
16099;SDS011;8154;50.830;12.082;2022-11-24T00:37:33;2.08;;;1.88;;
16099;SDS011;8154;50.830;12.082;2022-11-24T00:40:18;2.28;;;1.70;;
16099;SDS011;8154;50.830;12.082;2022-11-24T00:43:02;3.88;;;1.85;;
16099;SDS011;8154;50.830;12.082;2022-11-24T00:45:47;2.13;;;1.90;;
16099;SDS011;8154;50.830;12.082;2022-11-24T00:48:31;2.00;;;1.90;;
16099;SDS011;8154;50.830;12.082;2022-11-24T00:51:15;1.88;;;1.77;;
16099;SDS011;8154;50.830;12.082;2022-11-24T00:54:01;2.65;;;1.80;;
16099;SDS011;8154;50.830;12.082;2022-11-24T00:56:46;1.80;;;1.70;;
16099;SDS011;8154;50.830;12.082;2022-11-24T00:59:30;1.73;;;1.63;;
16099;SDS011;8154;50.830;12.082;2022-11-24T01:02:15;1.75;;;1.65;;
16099;SDS011;8154;50.830;12.082;2022-11-24T01:04:59;1.90;;;1.73;;
16099;SDS011;8154;50.830;12.082;2022-11-24T01:07:44;1.80;;;1.70;;
16099;SDS011;8154;50.830;12.082;2022-11-24T01:10:27;1.80;;;1.70;;
16099;SDS011;8154;50.830;12.082;2022-11-24T01:13:12;1.85;;;1.75;;
16099;SDS011;8154;50.830;12.082;2022-11-24T01:15:56;1.70;;;1.60;;
16099;SDS011;8154;50.830;12.082;2022-11-24T01:18:40;1.90;;;1.80;;
16099;SDS011;8154;50.830;12.082;2022-11-24T01:21:25;2.50;;;1.73;;
16099;SDS011;8154;50.830;12.082;2022-11-24T01:24:09;1.70;;;1.60;;
16099;SDS011;8154;50.830;12.082;2022-11-24T01:26:54;1.70;;;1.60;;
16099;SDS011;8154;50.830;12.082;2022-11-24T01:29:38;3.10;;;1.70;;
16099;SDS011;8154;50.830;12.082;2022-11-24T01:32:23;1.60;;;1.50;;
16099;SDS011;8154;50.830;12.082;2022-11-24T01:35:07;1.70;;;1.60;;
16099;SDS011;8154;50.830;12.082;2022-11-24T01:37:52;1.80;;;1.70;;
16099;SDS011;8154;50.830;12.082;2022-11-24T01:40:36;1.75;;;1.60;;
16099;SDS011;8154;50.830;12.082;2022-11-24T01:43:20;1.92;;;1.70;;
16099;SDS011;8154;50.830;12.082;2022-11-24T01:49:14;1.70;;;1.60;;
16099;SDS011;8154;50.830;12.082;2022-11-24T01:52:04;1.60;;;1.50;;
16099;SDS011;8154;50.830;12.082;2022-11-24T01:54:55;1.55;;;1.45;;
16099;SDS011;8154;50.830;12.082;2022-11-24T01:57:45;1.67;;;1.58;;
16099;SDS011;8154;50.830;12.082;2022-11-24T02:00:37;1.50;;;1.40;;
16099;SDS011;8154;50.830;12.082;2022-11-24T02:03:26;1.67;;;1.58;;
16099;SDS011;8154;50.830;12.082;2022-11-24T02:06:17;1.77;;;1.63;;
16099;SDS011;8154;50.830;12.082;2022-11-24T02:09:22;1.70;;;1.60;;
16099;SDS011;8154;50.830;12.082;2022-11-24T02:12:11;2.33;;;1.60;;
16099;SDS011;8154;50.830;12.082;2022-11-24T02:14:55;1.67;;;1.55;;
16099;SDS011;8154;50.830;12.082;2022-11-24T02:17:41;1.55;;;1.45;;
16099;SDS011;8154;50.830;12.082;2022-11-24T02:20:25;1.85;;;1.67;;
16099;SDS011;8154;50.830;12.082;2022-11-24T02:23:21;1.70;;;1.60;;
16099;SDS011;8154;50.830;12.082;2022-11-24T02:28:58;1.73;;;1.63;;
16099;SDS011;8154;50.830;12.082;2022-11-24T02:31:56;1.60;;;1.50;;
16099;SDS011;8154;50.830;12.082;2022-11-24T02:34:44;1.50;;;1.40;;
16099;SDS011;8154;50.830;12.082;2022-11-24T02:37:28;1.60;;;1.50;;
16099;SDS011;8154;50.830;12.082;2022-11-24T02:40:13;1.80;;;1.60;;
16099;SDS011;8154;50.830;12.082;2022-11-24T02:43:01;1.50;;;1.40;;
16099;SDS011;8154;50.830;12.082;2022-11-24T02:45:50;1.60;;;1.50;;
16099;SDS011;8154;50.830;12.082;2022-11-24T02:48:35;1.50;;;1.40;;
16099;SDS011;8154;50.830;12.082;2022-11-24T02:51:20;1.70;;;1.60;;
16099;SDS011;8154;50.830;12.082;2022-11-24T02:54:04;1.45;;;1.35;;
16099;SDS011;8154;50.830;12.082;2022-11-24T02:56:48;1.42;;;1.33;;
16099;SDS011;8154;50.830;12.082;2022-11-24T02:59:32;1.50;;;1.40;;
16099;SDS011;8154;50.830;12.082;2022-11-24T03:02:17;1.50;;;1.40;;
16099;SDS011;8154;50.830;12.082;2022-11-24T03:05:01;1.40;;;1.30;;
16099;SDS011;8154;50.830;12.082;2022-11-24T03:07:45;1.50;;;1.40;;
16099;SDS011;8154;50.830;12.082;2022-11-24T03:10:30;1.60;;;1.50;;
16099;SDS011;8154;50.830;12.082;2022-11-24T03:13:14;1.58;;;1.48;;
16099;SDS011;8154;50.830;12.082;2022-11-24T03:15:58;1.42;;;1.33;;
16099;SDS011;8154;50.830;12.082;2022-11-24T03:18:42;1.42;;;1.33;;
16099;SDS011;8154;50.830;12.082;2022-11-24T03:21:26;1.40;;;1.30;;
16099;SDS011;8154;50.830;12.082;2022-11-24T03:24:11;1.45;;;1.35;;
16099;SDS011;8154;50.830;12.082;2022-11-24T03:26:55;1.50;;;1.40;;
16099;SDS011;8154;50.830;12.082;2022-11-24T03:29:39;1.60;;;1.50;;
16099;SDS011;8154;50.830;12.082;2022-11-24T03:32:23;1.60;;;1.50;;
16099;SDS011;8154;50.830;12.082;2022-11-24T03:35:08;1.50;;;1.40;;
16099;SDS011;8154;50.830;12.082;2022-11-24T03:37:52;1.40;;;1.30;;
16099;SDS011;8154;50.830;12.082;2022-11-24T03:40:36;1.50;;;1.40;;
16099;SDS011;8154;50.830;12.082;2022-11-24T03:43:21;1.55;;;1.35;;
16099;SDS011;8154;50.830;12.082;2022-11-24T03:46:05;1.45;;;1.35;;
16099;SDS011;8154;50.830;12.082;2022-11-24T03:48:50;1.40;;;1.30;;
16099;SDS011;8154;50.830;12.082;2022-11-24T03:51:34;1.58;;;1.48;;
16099;SDS011;8154;50.830;12.082;2022-11-24T03:54:19;1.58;;;1.48;;
16099;SDS011;8154;50.830;12.082;2022-11-24T03:57:03;1.50;;;1.40;;
16099;SDS011;8154;50.830;12.082;2022-11-24T03:59:47;1.40;;;1.30;;
16099;SDS011;8154;50.830;12.082;2022-11-24T04:02:32;1.48;;;1.38;;
16099;SDS011;8154;50.830;12.082;2022-11-24T04:05:16;1.40;;;1.30;;
16099;SDS011;8154;50.830;12.082;2022-11-24T04:08:00;1.35;;;1.25;;
16099;SDS011;8154;50.830;12.082;2022-11-24T04:10:49;1.40;;;1.30;;
16099;SDS011;8154;50.830;12.082;2022-11-24T04:13:35;1.20;;;1.20;;
16099;SDS011;8154;50.830;12.082;2022-11-24T04:16:19;1.38;;;1.27;;
16099;SDS011;8154;50.830;12.082;2022-11-24T04:19:04;1.40;;;1.30;;
16099;SDS011;8154;50.830;12.082;2022-11-24T04:21:49;1.30;;;1.20;;
16099;SDS011;8154;50.830;12.082;2022-11-24T04:24:33;1.23;;;1.20;;
16099;SDS011;8154;50.830;12.082;2022-11-24T04:27:17;1.30;;;1.20;;
16099;SDS011;8154;50.830;12.082;2022-11-24T04:30:02;1.40;;;1.30;;
16099;SDS011;8154;50.830;12.082;2022-11-24T04:32:49;1.30;;;1.20;;
16099;SDS011;8154;50.830;12.082;2022-11-24T04:35:33;1.30;;;1.20;;
16099;SDS011;8154;50.830;12.082;2022-11-24T04:38:18;1.40;;;1.30;;
16099;SDS011;8154;50.830;12.082;2022-11-24T04:41:02;1.27;;;1.20;;
16099;SDS011;8154;50.830;12.082;2022-11-24T04:43:48;1.30;;;1.20;;
16099;SDS011;8154;50.830;12.082;2022-11-24T04:46:33;1.20;;;1.20;;
16099;SDS011;8154;50.830;12.082;2022-11-24T04:49:17;1.30;;;1.20;;
16099;SDS011;8154;50.830;12.082;2022-11-24T04:52:01;1.25;;;1.20;;
16099;SDS011;8154;50.830;12.082;2022-11-24T04:54:46;1.30;;;1.20;;
16099;SDS011;8154;50.830;12.082;2022-11-24T04:57:30;1.17;;;1.15;;
16099;SDS011;8154;50.830;12.082;2022-11-24T05:00:15;1.38;;;1.27;;
16099;SDS011;8154;50.830;12.082;2022-11-24T05:02:59;1.30;;;1.20;;
16099;SDS011;8154;50.830;12.082;2022-11-24T05:05:43;1.42;;;1.33;;
16099;SDS011;8154;50.830;12.082;2022-11-24T05:08:28;1.30;;;1.20;;
16099;SDS011;8154;50.830;12.082;2022-11-24T05:11:12;1.40;;;1.30;;
16099;SDS011;8154;50.830;12.082;2022-11-24T05:13:56;1.30;;;1.20;;
16099;SDS011;8154;50.830;12.082;2022-11-24T05:16:41;1.40;;;1.30;;
16099;SDS011;8154;50.830;12.082;2022-11-24T05:19:25;1.30;;;1.20;;
16099;SDS011;8154;50.830;12.082;2022-11-24T05:22:09;1.33;;;1.23;;
16099;SDS011;8154;50.830;12.082;2022-11-24T05:24:54;1.50;;;1.40;;
16099;SDS011;8154;50.830;12.082;2022-11-24T05:27:38;1.30;;;1.20;;
16099;SDS011;8154;50.830;12.082;2022-11-24T05:30:22;1.40;;;1.30;;
16099;SDS011;8154;50.830;12.082;2022-11-24T05:33:07;1.08;;;1.08;;
16099;SDS011;8154;50.830;12.082;2022-11-24T05:35:59;1.35;;;1.25;;
16099;SDS011;8154;50.830;12.082;2022-11-24T05:38:44;1.23;;;1.13;;
16099;SDS011;8154;50.830;12.082;2022-11-24T05:41:28;1.40;;;1.30;;
16099;SDS011;8154;50.830;12.082;2022-11-24T05:44:13;1.48;;;1.38;;
16099;SDS011;8154;50.830;12.082;2022-11-24T05:46:57;1.10;;;1.10;;
16099;SDS011;8154;50.830;12.082;2022-11-24T05:49:44;1.30;;;1.20;;
16099;SDS011;8154;50.830;12.082;2022-11-24T05:52:28;1.20;;;1.10;;
16099;SDS011;8154;50.830;12.082;2022-11-24T05:55:13;1.20;;;1.10;;
16099;SDS011;8154;50.830;12.082;2022-11-24T05:57:58;1.38;;;1.27;;
16099;SDS011;8154;50.830;12.082;2022-11-24T06:00:44;1.75;;;1.20;;
16099;SDS011;8154;50.830;12.082;2022-11-24T06:03:28;1.27;;;1.20;;
16099;SDS011;8154;50.830;12.082;2022-11-24T06:06:13;1.27;;;1.20;;
16099;SDS011;8154;50.830;12.082;2022-11-24T06:08:58;1.27;;;1.17;;
16099;SDS011;8154;50.830;12.082;2022-11-24T06:11:42;1.30;;;1.20;;
16099;SDS011;8154;50.830;12.082;2022-11-24T06:14:26;1.38;;;1.27;;
16099;SDS011;8154;50.830;12.082;2022-11-24T06:17:10;1.40;;;1.30;;
16099;SDS011;8154;50.830;12.082;2022-11-24T06:19:55;1.50;;;1.40;;
16099;SDS011;8154;50.830;12.082;2022-11-24T06:22:39;1.50;;;1.40;;
16099;SDS011;8154;50.830;12.082;2022-11-24T06:25:25;1.65;;;1.38;;
16099;SDS011;8154;50.830;12.082;2022-11-24T06:28:10;1.60;;;1.50;;
16099;SDS011;8154;50.830;12.082;2022-11-24T06:30:58;1.55;;;1.45;;
16099;SDS011;8154;50.830;12.082;2022-11-24T06:33:44;2.00;;;1.90;;
16099;SDS011;8154;50.830;12.082;2022-11-24T06:36:28;1.90;;;1.80;;
16099;SDS011;8154;50.830;12.082;2022-11-24T06:39:12;2.25;;;2.05;;
16099;SDS011;8154;50.830;12.082;2022-11-24T06:41:56;2.20;;;2.10;;
16099;SDS011;8154;50.830;12.082;2022-11-24T06:44:41;2.10;;;2.00;;
16099;SDS011;8154;50.830;12.082;2022-11-24T06:47:25;2.30;;;2.10;;
16099;SDS011;8154;50.830;12.082;2022-11-24T06:50:09;2.30;;;2.10;;
16099;SDS011;8154;50.830;12.082;2022-11-24T06:52:53;2.45;;;2.25;;
16099;SDS011;8154;50.830;12.082;2022-11-24T06:55:38;2.50;;;2.30;;
16099;SDS011;8154;50.830;12.082;2022-11-24T06:58:23;2.20;;;2.10;;
16099;SDS011;8154;50.830;12.082;2022-11-24T07:01:07;2.67;;;2.47;;
16099;SDS011;8154;50.830;12.082;2022-11-24T07:03:53;2.30;;;2.10;;
16099;SDS011;8154;50.830;12.082;2022-11-24T07:06:44;2.17;;;2.00;;
16099;SDS011;8154;50.830;12.082;2022-11-24T07:09:29;2.38;;;2.17;;
16099;SDS011;8154;50.830;12.082;2022-11-24T07:12:13;2.30;;;2.10;;
16099;SDS011;8154;50.830;12.082;2022-11-24T07:14:57;2.08;;;1.95;;
16099;SDS011;8154;50.830;12.082;2022-11-24T07:17:41;2.45;;;2.25;;
16099;SDS011;8154;50.830;12.082;2022-11-24T07:20:25;2.35;;;2.15;;
16099;SDS011;8154;50.830;12.082;2022-11-24T07:23:09;2.50;;;2.30;;
16099;SDS011;8154;50.830;12.082;2022-11-24T07:25:53;2.42;;;2.22;;
16099;SDS011;8154;50.830;12.082;2022-11-24T07:28:37;2.30;;;2.10;;
16099;SDS011;8154;50.830;12.082;2022-11-24T07:31:23;2.45;;;2.25;;
16099;SDS011;8154;50.830;12.082;2022-11-24T07:34:07;2.40;;;2.20;;
16099;SDS011;8154;50.830;12.082;2022-11-24T07:36:51;2.35;;;2.15;;
16099;SDS011;8154;50.830;12.082;2022-11-24T07:39:36;2.40;;;2.20;;
16099;SDS011;8154;50.830;12.082;2022-11-24T07:42:20;2.47;;;2.28;;
16099;SDS011;8154;50.830;12.082;2022-11-24T07:45:04;2.10;;;2.00;;
16099;SDS011;8154;50.830;12.082;2022-11-24T07:47:49;2.35;;;2.17;;
16099;SDS011;8154;50.830;12.082;2022-11-24T07:50:33;2.50;;;2.30;;
16099;SDS011;8154;50.830;12.082;2022-11-24T07:53:17;2.10;;;2.00;;
16099;SDS011;8154;50.830;12.082;2022-11-24T07:56:02;2.33;;;2.13;;
16099;SDS011;8154;50.830;12.082;2022-11-24T07:58:49;2.20;;;2.00;;
16099;SDS011;8154;50.830;12.082;2022-11-24T08:01:34;2.15;;;2.05;;
16099;SDS011;8154;50.830;12.082;2022-11-24T08:04:18;2.00;;;1.90;;
16099;SDS011;8154;50.830;12.082;2022-11-24T08:07:02;2.15;;;2.00;;
16099;SDS011;8154;50.830;12.082;2022-11-24T08:09:47;2.10;;;2.00;;
16099;SDS011;8154;50.830;12.082;2022-11-24T08:12:33;2.00;;;1.90;;
16099;SDS011;8154;50.830;12.082;2022-11-24T08:15:17;2.20;;;2.10;;
16099;SDS011;8154;50.830;12.082;2022-11-24T08:18:01;2.30;;;2.10;;
16099;SDS011;8154;50.830;12.082;2022-11-24T08:20:45;2.13;;;2.03;;
16099;SDS011;8154;50.830;12.082;2022-11-24T08:23:30;2.25;;;2.05;;
16099;SDS011;8154;50.830;12.082;2022-11-24T08:26:15;2.45;;;2.25;;
16099;SDS011;8154;50.830;12.082;2022-11-24T08:29:03;2.15;;;2.05;;
16099;SDS011;8154;50.830;12.082;2022-11-24T08:31:47;2.53;;;2.33;;
16099;SDS011;8154;50.830;12.082;2022-11-24T08:34:31;2.58;;;2.38;;
16099;SDS011;8154;50.830;12.082;2022-11-24T08:37:16;2.45;;;2.30;;
16099;SDS011;8154;50.830;12.082;2022-11-24T08:40:00;2.40;;;2.20;;
16099;SDS011;8154;50.830;12.082;2022-11-24T08:42:44;2.30;;;2.20;;
16099;SDS011;8154;50.830;12.082;2022-11-24T08:45:28;2.60;;;2.40;;
16099;SDS011;8154;50.830;12.082;2022-11-24T08:48:13;2.70;;;2.50;;
16099;SDS011;8154;50.830;12.082;2022-11-24T08:50:57;2.60;;;2.40;;
16099;SDS011;8154;50.830;12.082;2022-11-24T08:53:43;2.60;;;2.40;;
16099;SDS011;8154;50.830;12.082;2022-11-24T08:56:28;2.90;;;2.70;;
16099;SDS011;8154;50.830;12.082;2022-11-24T08:59:14;2.63;;;2.42;;
16099;SDS011;8154;50.830;12.082;2022-11-24T09:01:58;2.70;;;2.50;;
16099;SDS011;8154;50.830;12.082;2022-11-24T09:04:42;2.70;;;2.50;;
16099;SDS011;8154;50.830;12.082;2022-11-24T09:07:28;2.58;;;2.38;;
16099;SDS011;8154;50.830;12.082;2022-11-24T09:10:13;2.60;;;2.40;;
16099;SDS011;8154;50.830;12.082;2022-11-24T09:12:56;2.70;;;2.50;;
16099;SDS011;8154;50.830;12.082;2022-11-24T09:15:41;2.90;;;2.70;;
16099;SDS011;8154;50.830;12.082;2022-11-24T09:18:26;2.47;;;2.28;;
16099;SDS011;8154;50.830;12.082;2022-11-24T09:21:14;2.60;;;2.40;;
16099;SDS011;8154;50.830;12.082;2022-11-24T09:23:59;2.60;;;2.40;;
16099;SDS011;8154;50.830;12.082;2022-11-24T09:26:44;2.70;;;2.50;;
16099;SDS011;8154;50.830;12.082;2022-11-24T09:29:28;2.50;;;2.30;;
16099;SDS011;8154;50.830;12.082;2022-11-24T09:32:12;2.70;;;2.50;;
16099;SDS011;8154;50.830;12.082;2022-11-24T09:34:56;2.90;;;2.70;;
16099;SDS011;8154;50.830;12.082;2022-11-24T09:37:41;3.00;;;2.80;;
16099;SDS011;8154;50.830;12.082;2022-11-24T09:40:27;2.75;;;2.55;;
16099;SDS011;8154;50.830;12.082;2022-11-24T09:43:15;2.80;;;2.60;;
16099;SDS011;8154;50.830;12.082;2022-11-24T09:55:30;2.70;;;2.50;;
16099;SDS011;8154;50.830;12.082;2022-11-24T10:01:19;2.60;;;2.40;;
16099;SDS011;8154;50.830;12.082;2022-11-24T10:04:13;3.00;;;2.80;;
16099;SDS011;8154;50.830;12.082;2022-11-24T10:07:24;2.85;;;2.65;;
16099;SDS011;8154;50.830;12.082;2022-11-24T10:10:15;3.00;;;2.80;;
16099;SDS011;8154;50.830;12.082;2022-11-24T10:19:34;3.00;;;2.80;;
16099;SDS011;8154;50.830;12.082;2022-11-24T10:22:50;3.10;;;2.90;;
16099;SDS011;8154;50.830;12.082;2022-11-24T10:28:39;3.15;;;2.90;;
16099;SDS011;8154;50.830;12.082;2022-11-24T10:31:34;3.17;;;2.90;;
16099;SDS011;8154;50.830;12.082;2022-11-24T10:34:33;3.03;;;2.83;;
16099;SDS011;8154;50.830;12.082;2022-11-24T10:37:27;3.00;;;2.80;;
16099;SDS011;8154;50.830;12.082;2022-11-24T10:43:16;3.00;;;2.80;;
16099;SDS011;8154;50.830;12.082;2022-11-24T10:49:01;3.20;;;3.00;;
16099;SDS011;8154;50.830;12.082;2022-11-24T10:52:03;3.25;;;3.05;;
16099;SDS011;8154;50.830;12.082;2022-11-24T10:54:59;3.10;;;2.90;;
16099;SDS011;8154;50.830;12.082;2022-11-24T10:57:46;3.05;;;2.85;;
16099;SDS011;8154;50.830;12.082;2022-11-24T11:00:31;3.13;;;2.92;;
16099;SDS011;8154;50.830;12.082;2022-11-24T11:03:21;2.95;;;2.75;;
16099;SDS011;8154;50.830;12.082;2022-11-24T11:06:13;3.05;;;2.85;;
16099;SDS011;8154;50.830;12.082;2022-11-24T11:11:52;2.92;;;2.72;;
16099;SDS011;8154;50.830;12.082;2022-11-24T11:14:36;2.90;;;2.70;;
16099;SDS011;8154;50.830;12.082;2022-11-24T11:29:15;2.90;;;2.70;;
16099;SDS011;8154;50.830;12.082;2022-11-24T11:35:03;2.50;;;2.30;;
16099;SDS011;8154;50.830;12.082;2022-11-24T11:37:47;2.90;;;2.70;;
16099;SDS011;8154;50.830;12.082;2022-11-24T11:40:34;2.92;;;2.72;;
16099;SDS011;8154;50.830;12.082;2022-11-24T11:43:33;2.70;;;2.50;;
16099;SDS011;8154;50.830;12.082;2022-11-24T11:46:23;2.72;;;2.53;;
16099;SDS011;8154;50.830;12.082;2022-11-24T11:49:11;2.80;;;2.60;;
16099;SDS011;8154;50.830;12.082;2022-11-24T11:52:58;2.78;;;2.58;;
16099;SDS011;8154;50.830;12.082;2022-11-24T11:55:30;2.60;;;2.40;;
16099;SDS011;8154;50.830;12.082;2022-11-24T11:58:31;2.78;;;2.58;;
16099;SDS011;8154;50.830;12.082;2022-11-24T12:07:59;2.45;;;2.30;;
16099;SDS011;8154;50.830;12.082;2022-11-24T12:18:05;2.67;;;2.47;;
16099;SDS011;8154;50.830;12.082;2022-11-24T12:30:11;2.50;;;2.30;;
16099;SDS011;8154;50.830;12.082;2022-11-24T12:35:53;2.40;;;2.20;;
16099;SDS011;8154;50.830;12.082;2022-11-24T12:50:36;2.60;;;2.40;;
16099;SDS011;8154;50.830;12.082;2022-11-24T12:53:27;2.42;;;2.22;;
16099;SDS011;8154;50.830;12.082;2022-11-24T12:56:16;2.40;;;2.20;;
16099;SDS011;8154;50.830;12.082;2022-11-24T13:05:19;2.50;;;2.30;;
16099;SDS011;8154;50.830;12.082;2022-11-24T13:08:16;2.40;;;2.20;;
16099;SDS011;8154;50.830;12.082;2022-11-24T13:17:00;2.22;;;2.13;;
16099;SDS011;8154;50.830;12.082;2022-11-24T13:19:46;2.55;;;2.35;;
16099;SDS011;8154;50.830;12.082;2022-11-24T13:22:31;2.30;;;2.10;;
16099;SDS011;8154;50.830;12.082;2022-11-24T13:25:25;2.28;;;2.08;;
16099;SDS011;8154;50.830;12.082;2022-11-24T13:28:54;2.35;;;2.15;;
16099;SDS011;8154;50.830;12.082;2022-11-24T13:31:38;2.35;;;2.15;;
16099;SDS011;8154;50.830;12.082;2022-11-24T13:51:18;2.40;;;2.20;;
16099;SDS011;8154;50.830;12.082;2022-11-24T13:54:07;2.45;;;2.25;;
16099;SDS011;8154;50.830;12.082;2022-11-24T13:57:05;2.50;;;2.30;;
16099;SDS011;8154;50.830;12.082;2022-11-24T14:00:27;2.45;;;2.25;;
16099;SDS011;8154;50.830;12.082;2022-11-24T14:03:19;2.20;;;2.00;;
16099;SDS011;8154;50.830;12.082;2022-11-24T14:12:38;2.58;;;2.38;;
16099;SDS011;8154;50.830;12.082;2022-11-24T14:15:24;2.40;;;2.20;;
16099;SDS011;8154;50.830;12.082;2022-11-24T14:18:20;2.30;;;2.13;;
16099;SDS011;8154;50.830;12.082;2022-11-24T14:24:26;2.40;;;2.20;;
16099;SDS011;8154;50.830;12.082;2022-11-24T14:27:16;2.40;;;2.20;;
16099;SDS011;8154;50.830;12.082;2022-11-24T14:32:59;2.63;;;2.40;;
16099;SDS011;8154;50.830;12.082;2022-11-24T14:35:48;2.20;;;2.00;;
16099;SDS011;8154;50.830;12.082;2022-11-24T14:38:33;2.30;;;2.10;;
16099;SDS011;8154;50.830;12.082;2022-11-24T14:41:22;2.20;;;2.00;;
16099;SDS011;8154;50.830;12.082;2022-11-24T14:44:18;2.20;;;2.10;;
16099;SDS011;8154;50.830;12.082;2022-11-24T14:47:26;2.40;;;2.20;;
16099;SDS011;8154;50.830;12.082;2022-11-24T14:50:15;2.40;;;2.20;;
16099;SDS011;8154;50.830;12.082;2022-11-24T14:53:09;2.45;;;2.25;;
16099;SDS011;8154;50.830;12.082;2022-11-24T14:56:07;2.47;;;2.00;;
16099;SDS011;8154;50.830;12.082;2022-11-24T15:05:54;2.38;;;2.17;;
16099;SDS011;8154;50.830;12.082;2022-11-24T15:08:42;2.20;;;2.00;;
16099;SDS011;8154;50.830;12.082;2022-11-24T15:11:30;2.50;;;2.30;;
16099;SDS011;8154;50.830;12.082;2022-11-24T15:17:25;2.42;;;2.22;;
16099;SDS011;8154;50.830;12.082;2022-11-24T15:20:30;2.40;;;2.20;;
16099;SDS011;8154;50.830;12.082;2022-11-24T15:28:55;2.90;;;2.70;;
16099;SDS011;8154;50.830;12.082;2022-11-24T15:31:40;2.92;;;2.72;;
16099;SDS011;8154;50.830;12.082;2022-11-24T15:34:25;3.10;;;2.80;;
16099;SDS011;8154;50.830;12.082;2022-11-24T15:37:09;3.10;;;2.80;;
16099;SDS011;8154;50.830;12.082;2022-11-24T15:39:53;2.95;;;2.75;;
16099;SDS011;8154;50.830;12.082;2022-11-24T15:42:38;2.92;;;2.67;;
16099;SDS011;8154;50.830;12.082;2022-11-24T15:45:24;3.25;;;2.95;;
16099;SDS011;8154;50.830;12.082;2022-11-24T15:48:09;3.00;;;2.80;;
16099;SDS011;8154;50.830;12.082;2022-11-24T15:50:55;3.13;;;2.85;;
16099;SDS011;8154;50.830;12.082;2022-11-24T15:53:45;3.10;;;2.80;;
16099;SDS011;8154;50.830;12.082;2022-11-24T15:56:32;3.20;;;2.90;;
16099;SDS011;8154;50.830;12.082;2022-11-24T15:59:18;3.10;;;2.88;;
16099;SDS011;8154;50.830;12.082;2022-11-24T16:02:02;3.17;;;2.88;;
16099;SDS011;8154;50.830;12.082;2022-11-24T16:04:47;2.80;;;2.60;;
16099;SDS011;8154;50.830;12.082;2022-11-24T16:07:32;3.10;;;2.80;;
16099;SDS011;8154;50.830;12.082;2022-11-24T16:10:26;3.03;;;2.78;;
16099;SDS011;8154;50.830;12.082;2022-11-24T16:13:13;2.88;;;2.67;;
16099;SDS011;8154;50.830;12.082;2022-11-24T16:15:57;3.13;;;2.83;;
16099;SDS011;8154;50.830;12.082;2022-11-24T16:18:41;2.80;;;2.60;;
16099;SDS011;8154;50.830;12.082;2022-11-24T16:21:28;2.90;;;2.70;;
16099;SDS011;8154;50.830;12.082;2022-11-24T16:24:12;3.00;;;2.80;;
16099;SDS011;8154;50.830;12.082;2022-11-24T16:26:56;2.88;;;2.60;;
16099;SDS011;8154;50.830;12.082;2022-11-24T16:29:40;2.97;;;2.67;;
16099;SDS011;8154;50.830;12.082;2022-11-24T16:32:25;3.00;;;2.70;;
16099;SDS011;8154;50.830;12.082;2022-11-24T16:35:09;2.90;;;2.70;;
16099;SDS011;8154;50.830;12.082;2022-11-24T16:37:54;3.03;;;2.80;;
16099;SDS011;8154;50.830;12.082;2022-11-24T16:40:38;2.83;;;2.63;;
16099;SDS011;8154;50.830;12.082;2022-11-24T16:43:22;2.80;;;2.60;;
16099;SDS011;8154;50.830;12.082;2022-11-24T16:49:00;2.70;;;2.50;;
16099;SDS011;8154;50.830;12.082;2022-11-24T16:51:45;2.90;;;2.70;;
16099;SDS011;8154;50.830;12.082;2022-11-24T16:54:30;3.08;;;2.80;;
16099;SDS011;8154;50.830;12.082;2022-11-24T16:57:14;2.80;;;2.60;;
16099;SDS011;8154;50.830;12.082;2022-11-24T16:59:59;3.20;;;2.90;;
16099;SDS011;8154;50.830;12.082;2022-11-24T17:02:43;2.78;;;2.58;;
16099;SDS011;8154;50.830;12.082;2022-11-24T17:05:27;3.10;;;2.80;;
16099;SDS011;8154;50.830;12.082;2022-11-24T17:08:11;2.67;;;2.47;;
16099;SDS011;8154;50.830;12.082;2022-11-24T17:10:56;2.65;;;2.40;;
16099;SDS011;8154;50.830;12.082;2022-11-24T17:13:41;2.72;;;2.53;;
16099;SDS011;8154;50.830;12.082;2022-11-24T17:16:26;2.95;;;2.60;;
16099;SDS011;8154;50.830;12.082;2022-11-24T17:19:10;2.80;;;2.60;;
16099;SDS011;8154;50.830;12.082;2022-11-24T17:21:56;2.90;;;2.70;;
16099;SDS011;8154;50.830;12.082;2022-11-24T17:24:40;2.80;;;2.60;;
16099;SDS011;8154;50.830;12.082;2022-11-24T17:27:24;2.65;;;2.45;;
16099;SDS011;8154;50.830;12.082;2022-11-24T17:30:09;2.80;;;2.60;;
16099;SDS011;8154;50.830;12.082;2022-11-24T17:32:55;2.60;;;2.40;;
16099;SDS011;8154;50.830;12.082;2022-11-24T17:35:40;3.00;;;2.80;;
16099;SDS011;8154;50.830;12.082;2022-11-24T17:38:26;2.80;;;2.60;;
16099;SDS011;8154;50.830;12.082;2022-11-24T17:41:11;3.30;;;3.00;;
16099;SDS011;8154;50.830;12.082;2022-11-24T17:43:55;2.67;;;2.47;;
16099;SDS011;8154;50.830;12.082;2022-11-24T17:46:40;3.03;;;2.80;;
16099;SDS011;8154;50.830;12.082;2022-11-24T17:49:24;2.90;;;2.70;;
16099;SDS011;8154;50.830;12.082;2022-11-24T17:52:09;3.00;;;2.80;;
16099;SDS011;8154;50.830;12.082;2022-11-24T17:54:54;2.90;;;2.70;;
16099;SDS011;8154;50.830;12.082;2022-11-24T17:57:39;2.90;;;2.70;;
16099;SDS011;8154;50.830;12.082;2022-11-24T18:00:24;3.30;;;3.00;;
16099;SDS011;8154;50.830;12.082;2022-11-24T18:03:07;3.22;;;2.95;;
16099;SDS011;8154;50.830;12.082;2022-11-24T18:05:52;2.90;;;2.70;;
16099;SDS011;8154;50.830;12.082;2022-11-24T18:08:37;2.90;;;2.70;;
16099;SDS011;8154;50.830;12.082;2022-11-24T18:11:27;2.95;;;2.75;;
16099;SDS011;8154;50.830;12.082;2022-11-24T18:14:12;2.60;;;2.40;;
16099;SDS011;8154;50.830;12.082;2022-11-24T18:16:56;2.80;;;2.60;;
16099;SDS011;8154;50.830;12.082;2022-11-24T18:19:40;2.83;;;2.63;;
16099;SDS011;8154;50.830;12.082;2022-11-24T18:22:25;2.80;;;2.60;;
16099;SDS011;8154;50.830;12.082;2022-11-24T18:25:09;2.90;;;2.70;;
16099;SDS011;8154;50.830;12.082;2022-11-24T18:27:54;2.80;;;2.60;;
16099;SDS011;8154;50.830;12.082;2022-11-24T18:30:38;2.83;;;2.63;;
16099;SDS011;8154;50.830;12.082;2022-11-24T18:33:23;2.97;;;2.70;;
16099;SDS011;8154;50.830;12.082;2022-11-24T18:36:07;2.88;;;2.67;;
16099;SDS011;8154;50.830;12.082;2022-11-24T18:39:04;2.97;;;2.78;;
16099;SDS011;8154;50.830;12.082;2022-11-24T18:41:50;2.70;;;2.50;;
16099;SDS011;8154;50.830;12.082;2022-11-24T18:44:35;2.63;;;2.42;;
16099;SDS011;8154;50.830;12.082;2022-11-24T18:47:19;2.90;;;2.70;;
16099;SDS011;8154;50.830;12.082;2022-11-24T18:50:04;2.80;;;2.60;;
16099;SDS011;8154;50.830;12.082;2022-11-24T18:52:48;2.63;;;2.42;;
16099;SDS011;8154;50.830;12.082;2022-11-24T18:55:33;2.88;;;2.67;;
16099;SDS011;8154;50.830;12.082;2022-11-24T18:58:17;2.88;;;2.67;;
16099;SDS011;8154;50.830;12.082;2022-11-24T19:01:05;2.85;;;2.65;;
16099;SDS011;8154;50.830;12.082;2022-11-24T19:03:51;2.60;;;2.40;;
16099;SDS011;8154;50.830;12.082;2022-11-24T19:06:38;2.80;;;2.60;;
16099;SDS011;8154;50.830;12.082;2022-11-24T19:09:22;2.90;;;2.70;;
16099;SDS011;8154;50.830;12.082;2022-11-24T19:12:09;2.83;;;2.63;;
16099;SDS011;8154;50.830;12.082;2022-11-24T19:14:53;2.78;;;2.58;;